Time;durP1;ratioP1;P1;durP2;ratioP2;P2;SDS_P1;SDS_P2;PMS_P1;PMS_P2;Temp;Humidity;BMP_temperature;BMP_pressure;BME280_temperature;BME280_humidity;BME280_pressure;Samples;Min_cycle;Max_cycle;Signal;HPM_P1;HPM_P2
2022/12/22 03:28:03;;;;;;;74.07;35.07;;;8.50;99.90;;;;;;5060948;28;20044;-79
2022/12/22 03:30:29;;;;;;;70.73;35.20;;;8.50;99.90;;;;;;5061763;28;20045;-79
2022/12/22 03:32:55;;;;;;;76.37;34.07;;;8.50;99.90;;;;;;5062445;28;20674;-79
2022/12/22 03:35:20;;;;;;;76.73;35.03;;;8.50;99.90;;;;;;5063340;28;20053;-79
2022/12/22 03:37:46;;;;;;;58.43;31.57;;;8.60;99.90;;;;;;5060747;28;20183;-77
2022/12/22 03:40:12;;;;;;;76.40;34.93;;;8.50;99.90;;;;;;5042097;28;20049;-79
2022/12/22 03:48:06;;;;;;;59.33;31.47;;;8.60;99.90;;;;;;5059288;28;20065;-79
2022/12/22 03:50:32;;;;;;;67.57;36.17;;;8.50;99.90;;;;;;5047228;28;20080;-79
2022/12/22 03:52:57;;;;;;;81.17;38.37;;;8.50;99.90;;;;;;5064493;28;20086;-78
2022/12/22 03:55:23;;;;;;;98.37;38.40;;;8.60;99.90;;;;;;5045883;28;20656;-78
2022/12/22 03:57:49;;;;;;;82.93;37.23;;;8.60;99.90;;;;;;5059353;28;20052;-79
2022/12/22 04:00:15;;;;;;;70.50;37.00;;;8.60;99.90;;;;;;5058789;28;20109;-79
2022/12/22 04:02:41;;;;;;;92.77;38.87;;;8.60;99.90;;;;;;5060070;28;20040;-79
2022/12/22 04:05:07;;;;;;;57.37;31.37;;;8.60;99.90;;;;;;5058407;28;20769;-78
2022/12/22 04:07:33;;;;;;;98.00;41.37;;;8.60;99.90;;;;;;5057376;28;20043;-79
2022/12/22 04:12:55;;;;;;;82.33;36.60;;;8.60;99.90;;;;;;5060110;28;20044;-79
2022/12/22 04:15:23;;;;;;;54.33;30.23;;;8.60;99.90;;;;;;5057552;28;20045;-79
2022/12/22 04:17:48;;;;;;;75.80;34.50;;;8.60;99.90;;;;;;5058233;28;20088;-79
2022/12/22 04:20:14;;;;;;;59.97;31.27;;;8.60;99.90;;;;;;5057551;28;20499;-80
2022/12/22 04:22:40;;;;;;;80.93;37.03;;;8.60;99.90;;;;;;5063249;28;20078;-79
2022/12/22 04:25:06;;;;;;;45.90;26.33;;;8.60;99.90;;;;;;5057663;28;20554;-79
2022/12/22 04:27:32;;;;;;;80.27;35.93;;;8.60;99.90;;;;;;5058437;28;20575;-78
2022/12/22 04:29:57;;;;;;;67.27;31.83;;;8.60;99.90;;;;;;5057813;28;20175;-83
2022/12/22 04:32:23;;;;;;;83.60;35.03;;;8.70;99.90;;;;;;5056038;28;20691;-77
2022/12/22 04:34:49;;;;;;;57.23;29.60;;;8.70;99.90;;;;;;5058255;28;20079;-79
2022/12/22 04:37:14;;;;;;;57.53;28.87;;;8.70;99.90;;;;;;5074213;28;20043;-81
2022/12/22 04:39:40;;;;;;;63.33;31.73;;;8.70;99.90;;;;;;5074146;28;20063;-81
2022/12/22 04:42:06;;;;;;;55.13;28.37;;;8.70;99.90;;;;;;5060478;28;20040;-82
2022/12/22 04:44:31;;;;;;;63.03;32.90;;;8.70;99.90;;;;;;5062305;28;20132;-82
2022/12/22 04:46:57;;;;;;;39.73;23.50;;;8.70;99.90;;;;;;5058668;28;20052;-81
2022/12/22 04:49:23;;;;;;;46.47;27.03;;;8.70;99.90;;;;;;5059206;28;20078;-81
2022/12/22 04:51:48;;;;;;;51.80;27.20;;;8.70;99.90;;;;;;5060643;28;20076;-81
2022/12/22 04:54:14;;;;;;;57.83;29.93;;;8.70;99.90;;;;;;5069859;28;20094;-80
2022/12/22 04:56:40;;;;;;;41.17;26.10;;;8.70;99.90;;;;;;5058371;28;20113;-80
2022/12/22 04:59:05;;;;;;;52.83;29.37;;;8.70;99.90;;;;;;5047999;28;20075;-81
2022/12/22 05:01:31;;;;;;;44.00;25.00;;;8.70;99.90;;;;;;5071955;28;20092;-81
2022/12/22 05:03:57;;;;;;;41.00;24.43;;;8.70;99.90;;;;;;5070768;28;20643;-80
2022/12/22 05:06:23;;;;;;;54.33;26.40;;;8.70;99.90;;;;;;5047417;28;20055;-85
2022/12/22 05:08:48;;;;;;;39.50;22.40;;;8.70;99.90;;;;;;5064874;28;20064;-84
2022/12/22 05:11:14;;;;;;;61.60;27.47;;;8.70;99.90;;;;;;5075502;28;20408;-85
2022/12/22 05:13:40;;;;;;;71.43;30.00;;;8.70;99.90;;;;;;5068672;28;20047;-84
2022/12/22 05:16:13;;;;;;;50.83;25.87;;;8.70;99.90;;;;;;5068216;28;20040;-84
2022/12/22 05:18:41;;;;;;;37.60;22.77;;;8.60;99.90;;;;;;5071068;28;20098;-85
2022/12/22 05:21:10;;;;;;;92.37;32.00;;;8.60;99.90;;;;;;5071529;28;20128;-84
2022/12/22 05:23:36;;;;;;;58.40;27.57;;;8.60;99.90;;;;;;5073344;28;20131;-83
2022/12/22 05:26:02;;;;;;;40.90;23.87;;;8.60;99.90;;;;;;5070240;28;20068;-83
2022/12/22 05:28:28;;;;;;;62.70;28.43;;;8.60;99.90;;;;;;5071593;28;20040;-84
2022/12/22 05:30:54;;;;;;;75.93;31.90;;;8.50;99.90;;;;;;5064837;28;20041;-85
2022/12/22 05:33:20;;;;;;;57.07;26.67;;;8.50;99.90;;;;;;5075639;28;20127;-82
2022/12/22 05:35:46;;;;;;;125.00;41.60;;;8.60;99.90;;;;;;5072534;28;20499;-83
2022/12/22 05:38:11;;;;;;;64.83;28.67;;;8.50;99.90;;;;;;5072669;28;20078;-84
2022/12/22 05:40:37;;;;;;;71.13;30.13;;;8.50;99.90;;;;;;5061580;28;20084;-83
2022/12/22 05:43:03;;;;;;;85.93;35.00;;;8.50;99.90;;;;;;5059677;28;20045;-83
2022/12/22 05:45:29;;;;;;;54.17;27.27;;;8.50;99.90;;;;;;5056398;28;20420;-83
2022/12/22 05:47:54;;;;;;;66.00;29.57;;;8.50;99.90;;;;;;5070548;28;20045;-83
2022/12/22 05:50:22;;;;;;;57.43;26.77;;;8.60;99.90;;;;;;5066788;28;20068;-82
2022/12/22 05:52:48;;;;;;;47.57;24.37;;;8.50;99.90;;;;;;5060540;28;20073;-84
2022/12/22 05:55:15;;;;;;;46.27;24.73;;;8.60;99.90;;;;;;5062685;28;20041;-84
2022/12/22 05:57:41;;;;;;;52.67;25.73;;;8.60;99.90;;;;;;5073312;28;20086;-83
2022/12/22 06:00:14;;;;;;;43.00;22.50;;;8.60;99.90;;;;;;5075489;28;20062;-83
2022/12/22 06:02:41;;;;;;;46.83;24.63;;;8.60;99.90;;;;;;5066946;28;20036;-84
2022/12/22 06:05:08;;;;;;;46.83;23.80;;;8.70;99.90;;;;;;5069763;28;20068;-83
2022/12/22 06:07:34;;;;;;;56.83;25.90;;;8.70;99.90;;;;;;5074704;28;20044;-82
2022/12/22 06:09:59;;;;;;;59.73;26.60;;;8.70;99.90;;;;;;5071230;28;20048;-83
2022/12/22 06:12:25;;;;;;;58.37;27.00;;;8.70;99.90;;;;;;5074571;28;20100;-83
2022/12/22 06:14:51;;;;;;;56.47;26.23;;;8.70;99.90;;;;;;5067059;28;20043;-84
2022/12/22 06:17:17;;;;;;;64.07;27.30;;;8.70;99.90;;;;;;5068276;28;20053;-83
2022/12/22 06:19:42;;;;;;;56.00;24.27;;;8.70;99.90;;;;;;5070895;28;20032;-81
2022/12/22 06:22:08;;;;;;;63.20;28.23;;;8.70;99.90;;;;;;5070736;28;20397;-84
2022/12/22 06:24:34;;;;;;;65.47;28.17;;;8.70;99.90;;;;;;5070823;28;20104;-83
2022/12/22 06:27:00;;;;;;;61.77;27.60;;;8.70;99.90;;;;;;5073219;28;20143;-83
2022/12/22 06:29:25;;;;;;;63.57;28.27;;;8.70;99.90;;;;;;5073137;28;20402;-84
2022/12/22 06:31:51;;;;;;;62.87;27.93;;;8.70;99.90;;;;;;5073101;28;20040;-83
2022/12/22 06:34:17;;;;;;;62.23;27.53;;;8.70;99.90;;;;;;5057249;28;20048;-84
2022/12/22 06:36:46;;;;;;;65.17;28.97;;;8.60;99.90;;;;;;5064634;28;20040;-84
2022/12/22 06:39:13;;;;;;;59.73;26.93;;;8.60;99.90;;;;;;5075751;28;20044;-84
2022/12/22 06:44:23;;;;;;;61.17;28.57;;;8.60;99.90;;;;;;5069315;28;20052;-85
2022/12/22 06:46:49;;;;;;;60.03;27.03;;;8.60;99.90;;;;;;5050976;28;20411;-85
2022/12/22 06:49:15;;;;;;;55.77;25.57;;;8.60;99.90;;;;;;5060921;28;20040;-84
2022/12/22 06:51:41;;;;;;;66.83;28.17;;;8.60;99.90;;;;;;5065393;28;20040;-84
2022/12/22 06:54:06;;;;;;;53.80;24.83;;;8.60;99.90;;;;;;5068105;28;20429;-83
2022/12/22 06:56:32;;;;;;;63.90;25.53;;;8.50;99.90;;;;;;5066717;28;20143;-84
2022/12/22 06:58:58;;;;;;;63.17;26.67;;;8.50;99.90;;;;;;5068978;28;20112;-83
2022/12/22 07:01:23;;;;;;;61.43;26.33;;;8.50;99.90;;;;;;5063453;28;20072;-85
2022/12/22 07:03:49;;;;;;;64.80;25.30;;;8.50;99.90;;;;;;5071729;28;20053;-84
2022/12/22 07:06:17;;;;;;;65.67;26.10;;;8.50;99.90;;;;;;5069267;28;20044;-85
2022/12/22 07:08:44;;;;;;;65.57;26.50;;;8.40;99.90;;;;;;5073320;28;20052;-85
2022/12/22 07:11:10;;;;;;;65.60;27.17;;;8.30;99.90;;;;;;5057588;28;20055;-83
2022/12/22 07:13:35;;;;;;;58.97;25.13;;;8.20;99.90;;;;;;5062618;28;20045;-86
2022/12/22 07:16:02;;;;;;;51.90;24.13;;;8.20;99.90;;;;;;5064894;28;20079;-84
2022/12/22 07:18:33;;;;;;;58.87;25.70;;;8.10;99.90;;;;;;5075547;28;20092;-85
2022/12/22 07:21:01;;;;;;;60.13;25.30;;;8.10;99.90;;;;;;5065393;28;20075;-85
2022/12/22 07:23:27;;;;;;;55.23;23.63;;;8.00;99.90;;;;;;5071571;28;20063;-82
2022/12/22 07:25:53;;;;;;;71.47;26.73;;;7.90;99.90;;;;;;5076930;28;20047;-84
2022/12/22 07:28:19;;;;;;;51.27;22.17;;;7.80;99.90;;;;;;5069659;28;20044;-84
2022/12/22 07:30:45;;;;;;;45.17;21.83;;;7.80;99.90;;;;;;5069106;28;20527;-78
2022/12/22 07:33:11;;;;;;;134.90;27.37;;;7.70;99.90;;;;;;5075475;28;20053;-81
2022/12/22 07:35:36;;;;;;;121.63;21.23;;;7.60;99.90;;;;;;5070030;28;20072;-77
2022/12/22 07:38:02;;;;;;;104.23;31.43;;;7.60;99.90;;;;;;5075007;28;20029;-79
2022/12/22 07:40:28;;;;;;;71.53;23.23;;;7.50;99.90;;;;;;5065175;28;20580;-84
2022/12/22 07:42:58;;;;;;;96.27;28.40;;;7.40;99.90;;;;;;5068765;28;20033;-83
2022/12/22 07:45:24;;;;;;;144.33;26.63;;;7.40;99.90;;;;;;5069161;28;20040;-83
2022/12/22 07:47:49;;;;;;;72.43;25.73;;;7.30;99.90;;;;;;5066013;28;20119;-82
2022/12/22 07:50:27;;;;;;;67.27;23.60;;;7.20;99.90;;;;;;5069380;28;20041;-83
2022/12/22 07:52:56;;;;;;;93.23;29.37;;;7.10;99.90;;;;;;5076716;28;20052;-83
2022/12/22 07:55:23;;;;;;;63.60;19.40;;;7.10;99.90;;;;;;5068006;28;20073;-82
2022/12/22 07:57:49;;;;;;;66.10;26.33;;;7.10;99.90;;;;;;5077961;28;20049;-82
2022/12/22 08:00:15;;;;;;;74.67;24.13;;;7.10;99.90;;;;;;5071821;28;20058;-83
2022/12/22 08:02:41;;;;;;;69.67;26.60;;;7.20;99.90;;;;;;5070604;28;20964;-83
2022/12/22 08:05:08;;;;;;;66.87;25.23;;;7.30;99.90;;;;;;5075172;28;20079;-82
2022/12/22 08:07:34;;;;;;;68.53;25.67;;;7.40;99.90;;;;;;5063821;28;20048;-82
2022/12/22 08:10:00;;;;;;;69.13;25.73;;;7.40;99.90;;;;;;5075630;28;20048;-82
2022/12/22 08:12:28;;;;;;;66.03;24.63;;;7.40;99.90;;;;;;5058027;28;20044;-82
2022/12/22 08:14:54;;;;;;;58.37;23.47;;;7.50;99.90;;;;;;5059171;28;20132;-83
2022/12/22 08:17:19;;;;;;;60.50;24.00;;;7.40;99.90;;;;;;5057077;28;20075;-84
2022/12/22 08:19:47;;;;;;;59.73;24.83;;;7.50;99.90;;;;;;5061084;28;20917;-83
2022/12/22 08:22:13;;;;;;;53.67;22.57;;;7.50;99.90;;;;;;5059410;28;20041;-84
2022/12/22 08:24:38;;;;;;;55.47;21.40;;;7.50;99.90;;;;;;5064466;28;20033;-83
2022/12/22 08:27:10;;;;;;;55.37;23.47;;;7.50;99.90;;;;;;5055784;28;20037;-82
2022/12/22 08:29:50;;;;;;;48.42;21.05;;;7.50;99.90;;;;;;5056570;28;20044;-83
2022/12/22 08:32:16;;;;;;;60.80;22.23;;;7.50;99.90;;;;;;5056323;28;20051;-81
2022/12/22 08:34:42;;;;;;;53.57;22.27;;;7.50;99.90;;;;;;5041053;28;20049;-83
2022/12/22 08:37:13;;;;;;;49.03;20.87;;;7.50;99.90;;;;;;5055680;28;20067;-81
2022/12/22 08:39:41;;;;;;;52.17;21.30;;;7.50;99.90;;;;;;5057027;28;20053;-83
2022/12/22 08:42:13;;;;;;;46.00;20.20;;;7.50;99.90;;;;;;5058366;28;20053;-82
2022/12/22 08:44:39;;;;;;;49.40;20.48;;;7.60;99.90;;;;;;5067306;28;20048;-86
2022/12/22 08:47:05;;;;;;;48.60;21.97;;;7.60;99.90;;;;;;5042090;28;20128;-83
2022/12/22 08:49:30;;;;;;;45.57;19.60;;;7.60;99.90;;;;;;5058399;28;20049;-82
2022/12/22 08:51:56;;;;;;;51.50;20.60;;;7.60;99.90;;;;;;5064972;28;20041;-82
2022/12/22 08:54:22;;;;;;;49.67;21.83;;;7.60;99.90;;;;;;5058440;28;20392;-83
2022/12/22 08:56:48;;;;;;;50.40;20.87;;;7.60;99.90;;;;;;5060132;28;20048;-83
2022/12/22 08:59:14;;;;;;;44.10;19.07;;;7.60;99.90;;;;;;5046584;28;20056;-82
2022/12/22 09:01:42;;;;;;;50.63;19.67;;;7.60;99.90;;;;;;5060581;28;20476;-83
2022/12/22 09:04:11;;;;;;;43.60;19.50;;;7.60;99.90;;;;;;5059942;28;20052;-84
2022/12/22 09:06:37;;;;;;;44.30;18.77;;;7.60;99.90;;;;;;5065120;28;20499;-85
2022/12/22 09:09:05;;;;;;;48.00;19.83;;;7.50;99.90;;;;;;5058930;28;20104;-81
2022/12/22 09:11:32;;;;;;;45.17;18.20;;;7.50;99.90;;;;;;5059588;28;20036;-81
2022/12/22 09:13:59;;;;;;;47.23;19.97;;;7.50;99.90;;;;;;5060465;28;20048;-84
2022/12/22 09:16:27;;;;;;;46.60;19.67;;;7.50;99.90;;;;;;5066643;28;20056;-82
2022/12/22 09:18:54;;;;;;;43.67;18.87;;;7.40;99.90;;;;;;5071571;28;20553;-80
2022/12/22 09:21:20;;;;;;;44.63;18.97;;;7.40;99.90;;;;;;5070405;28;20059;-78
2022/12/22 09:23:46;;;;;;;55.10;20.67;;;7.40;99.90;;;;;;5069720;28;20060;-83
2022/12/22 09:26:20;;;;;;;50.93;19.30;;;7.40;99.90;;;;;;5064685;28;20049;-83
2022/12/22 09:28:46;;;;;;;51.17;20.73;;;7.40;99.90;;;;;;5065046;28;20076;-84
2022/12/22 09:31:12;;;;;;;44.97;18.07;;;7.40;99.90;;;;;;5058386;28;20044;-83
2022/12/22 09:33:38;;;;;;;45.03;18.60;;;7.40;99.90;;;;;;5054149;28;20779;-84
2022/12/22 09:36:10;;;;;;;47.43;19.03;;;7.30;99.90;;;;;;5058592;28;20044;-84
2022/12/22 09:38:36;;;;;;;41.58;18.27;;;7.40;99.90;;;;;;5052198;28;20090;-85
2022/12/22 09:41:48;;;;;;;46.80;18.33;;;7.40;99.90;;;;;;5057662;28;20040;-83
2022/12/22 09:44:33;;;;;;;38.93;17.47;;;7.40;99.90;;;;;;5054116;28;20060;-84
2022/12/22 09:47:14;;;;;;;47.47;19.27;;;7.40;99.90;;;;;;5058726;28;20048;-84
2022/12/22 09:49:40;;;;;;;38.87;16.47;;;7.30;99.90;;;;;;5057235;28;20041;-84
2022/12/22 09:52:20;;;;;;;35.83;16.27;;;7.40;99.90;;;;;;5058279;28;20040;-84
2022/12/22 09:54:45;;;;;;;39.20;16.80;;;7.40;99.90;;;;;;5050942;28;20044;-83
2022/12/22 09:57:12;;;;;;;39.10;16.40;;;7.40;99.90;;;;;;5054456;28;20099;-84
2022/12/22 09:59:37;;;;;;;31.53;15.17;;;7.40;99.90;;;;;;5058163;28;20491;-83
2022/12/22 10:02:32;;;;;;;38.60;16.17;;;7.40;99.90;;;;;;5063939;28;20067;-84
2022/12/22 10:05:27;;;;;;;32.03;13.70;;;7.40;99.90;;;;;;5059657;28;20074;-83
2022/12/22 10:07:57;;;;;;;29.20;12.50;;;7.30;99.90;;;;;;5058681;28;20538;-85
2022/12/22 10:10:27;;;;;;;25.93;13.83;;;7.30;99.90;;;;;;5064320;28;20036;-84
2022/12/22 10:13:00;;;;;;;26.07;12.80;;;7.20;99.90;;;;;;5065536;28;20076;-84
2022/12/22 10:15:33;;;;;;;28.73;12.57;;;7.20;99.90;;;;;;5057361;28;20052;-82
2022/12/22 10:18:34;;;;;;;21.87;11.27;;;7.20;99.90;;;;;;5051249;28;20055;-84
2022/12/22 10:21:12;;;;;;;22.57;10.83;;;7.10;99.90;;;;;;5015814;28;20087;-84
2022/12/22 10:23:44;;;;;;;22.67;11.80;;;7.10;99.90;;;;;;5053490;28;20049;-85
2022/12/22 10:26:31;;;;;;;22.37;11.20;;;7.10;99.90;;;;;;5057621;28;20060;-83
2022/12/22 10:29:13;;;;;;;25.33;11.50;;;7.20;99.90;;;;;;5058201;28;20056;-85
2022/12/22 10:31:56;;;;;;;31.08;13.00;;;7.20;99.90;;;;;;5059731;28;20480;-84
2022/12/22 10:34:22;;;;;;;24.37;12.07;;;7.30;99.90;;;;;;5060358;28;20041;-84
2022/12/22 10:36:50;;;;;;;22.50;11.87;;;7.30;99.90;;;;;;5059739;28;20783;-84
2022/12/22 10:39:25;;;;;;;25.27;12.93;;;7.40;99.90;;;;;;5063596;28;20064;-84
2022/12/22 10:41:54;;;;;;;26.50;11.50;;;7.50;99.90;;;;;;5063237;28;20043;-84
2022/12/22 10:44:33;;;;;;;21.57;11.37;;;7.50;99.90;;;;;;5057192;28;20045;-84
2022/12/22 10:47:11;;;;;;;22.33;10.63;;;7.60;99.90;;;;;;5061946;28;20075;-84
2022/12/22 10:49:40;;;;;;;23.37;10.53;;;7.60;99.90;;;;;;5057573;28;20106;-84
2022/12/22 10:52:14;;;;;;;20.87;10.57;;;7.60;99.90;;;;;;5057070;28;20044;-85
2022/12/22 10:54:42;;;;;;;25.40;11.07;;;7.60;99.90;;;;;;5063406;28;20044;-84
2022/12/22 10:57:17;;;;;;;20.53;10.37;;;7.60;99.90;;;;;;5064862;28;20067;-84
2022/12/22 11:00:01;;;;;;;21.07;10.37;;;7.70;99.90;;;;;;5069397;28;20055;-84
2022/12/22 11:02:33;;;;;;;22.47;11.43;;;7.80;99.90;;;;;;5067109;28;20684;-85
2022/12/22 11:05:08;;;;;;;23.83;10.33;;;7.80;99.90;;;;;;5063094;28;20041;-85
2022/12/22 11:07:37;;;;;;;24.47;10.93;;;7.80;99.90;;;;;;5065945;28;20116;-84
2022/12/22 11:10:13;;;;;;;22.77;10.77;;;7.90;99.90;;;;;;5057149;28;20072;-84
2022/12/22 11:12:56;;;;;;;24.60;11.30;;;8.00;99.90;;;;;;5066412;28;20157;-76
2022/12/22 11:15:46;;;;;;;26.17;11.98;;;8.10;99.90;;;;;;5063546;28;20053;-76
2022/12/22 11:18:44;;;;;;;21.23;10.67;;;8.20;99.90;;;;;;5064851;28;20503;-76
2022/12/22 11:21:48;;;;;;;20.73;10.73;;;8.30;99.90;;;;;;5056911;28;20044;-76
2022/12/22 11:24:29;;;;;;;25.13;10.50;;;8.30;99.90;;;;;;5042550;28;20057;-77
2022/12/22 11:27:04;;;;;;;23.47;10.80;;;8.30;99.90;;;;;;5062274;28;20054;-76
2022/12/22 11:29:44;;;;;;;21.67;9.30;;;8.40;99.90;;;;;;5059403;28;20495;-77
2022/12/22 11:32:25;;;;;;;21.30;10.33;;;8.30;99.90;;;;;;5063845;28;20052;-76
2022/12/22 11:35:24;;;;;;;21.00;10.43;;;8.30;99.90;;;;;;5054524;28;20052;-76
2022/12/22 11:37:57;;;;;;;19.13;9.70;;;8.30;99.90;;;;;;5052840;28;20037;-76
2022/12/22 11:40:36;;;;;;;19.23;9.70;;;8.30;99.90;;;;;;5076862;28;20054;-84
2022/12/22 11:43:21;;;;;;;19.80;9.83;;;8.30;99.90;;;;;;5071905;28;20075;-84
2022/12/22 11:46:18;;;;;;;20.63;9.63;;;8.30;99.90;;;;;;5067003;28;20052;-83
2022/12/22 11:49:31;;;;;;;20.70;9.60;;;8.30;99.90;;;;;;5076484;28;20551;-83
2022/12/22 11:52:17;;;;;;;19.10;8.97;;;8.30;99.90;;;;;;5045685;28;20073;-84
2022/12/22 11:55:10;;;;;;;16.63;9.23;;;8.30;99.90;;;;;;5065043;28;20499;-83
2022/12/22 11:57:55;;;;;;;20.77;10.03;;;8.30;99.90;;;;;;5078389;28;20481;-84
2022/12/22 12:00:21;;;;;;;16.87;9.20;;;8.30;99.90;;;;;;5066929;28;20084;-85
2022/12/22 12:03:24;;;;;;;17.23;9.70;;;8.30;99.90;;;;;;5065188;28;21009;-84
2022/12/22 12:06:31;;;;;;;16.83;9.27;;;8.30;99.90;;;;;;5075842;28;20055;-82
2022/12/22 12:09:33;;;;;;;17.87;8.97;;;8.30;99.90;;;;;;5065764;28;20056;-83
2022/12/22 12:12:10;;;;;;;16.58;9.05;;;8.30;99.90;;;;;;5069601;28;20061;-83
2022/12/22 12:15:17;;;;;;;21.00;9.07;;;8.30;99.90;;;;;;5069899;28;20464;-82
2022/12/22 12:18:04;;;;;;;21.00;9.87;;;8.30;99.90;;;;;;5055138;28;20476;-84
2022/12/22 12:20:41;;;;;;;17.23;8.90;;;8.30;99.90;;;;;;5071259;28;20469;-85
2022/12/22 12:23:13;;;;;;;23.63;9.87;;;8.30;99.90;;;;;;5070628;28;20044;-84
2022/12/22 12:25:57;;;;;;;20.13;9.48;;;8.30;99.90;;;;;;5071311;28;20048;-83
2022/12/22 12:28:42;;;;;;;15.37;7.90;;;8.40;99.90;;;;;;5069734;28;20058;-85
2022/12/22 12:31:11;;;;;;;16.80;8.83;;;8.40;99.90;;;;;;5072514;28;20041;-84
2022/12/22 12:33:51;;;;;;;18.23;8.40;;;8.50;99.90;;;;;;5076016;28;20420;-85
2022/12/22 12:36:19;;;;;;;22.47;8.50;;;8.50;99.90;;;;;;5070458;28;20052;-84
2022/12/22 12:38:53;;;;;;;18.47;9.07;;;8.50;99.90;;;;;;5071702;28;20067;-84
2022/12/22 12:41:37;;;;;;;20.83;9.67;;;8.50;99.90;;;;;;5051834;28;20063;-84
2022/12/22 12:44:05;;;;;;;18.90;8.70;;;8.60;99.90;;;;;;5070299;28;20117;-85
2022/12/22 12:46:42;;;;;;;15.30;8.40;;;8.60;99.90;;;;;;5068071;28;20068;-85
2022/12/22 12:49:49;;;;;;;15.07;7.53;;;8.70;99.90;;;;;;5073318;28;20059;-84
2022/12/22 12:52:15;;;;;;;16.13;7.60;;;8.70;99.90;;;;;;5073814;28;20056;-86
2022/12/22 12:54:48;;;;;;;18.40;7.73;;;8.70;99.90;;;;;;5074968;28;20044;-85
2022/12/22 12:57:27;;;;;;;13.80;7.83;;;8.80;99.90;;;;;;5073258;28;20135;-84
2022/12/22 12:59:58;;;;;;;16.20;7.80;;;8.80;99.90;;;;;;5069593;28;20048;-84
2022/12/22 13:02:27;;;;;;;19.50;8.30;;;8.80;99.90;;;;;;5068541;28;20117;-84
2022/12/22 13:05:14;;;;;;;14.20;7.33;;;8.90;99.90;;;;;;5060527;28;20075;-85
2022/12/22 13:08:08;;;;;;;15.67;8.43;;;8.90;99.90;;;;;;5068949;28;20086;-85
2022/12/22 13:10:38;;;;;;;17.17;7.87;;;8.90;99.90;;;;;;5063490;28;20606;-85
2022/12/22 13:13:08;;;;;;;16.23;8.70;;;8.90;99.90;;;;;;5066336;28;20056;-83
2022/12/22 13:15:38;;;;;;;16.40;8.60;;;9.00;99.90;;;;;;5068019;28;20103;-84
2022/12/22 13:18:31;;;;;;;18.63;8.43;;;9.00;99.90;;;;;;5058601;28;20051;-84
2022/12/22 13:21:05;;;;;;;14.53;9.17;;;9.10;99.90;;;;;;5057834;28;20528;-84
2022/12/22 13:23:35;;;;;;;15.83;9.60;;;9.20;99.90;;;;;;5074925;28;20044;-83
2022/12/22 13:26:35;;;;;;;20.77;9.97;;;9.20;99.90;;;;;;5064961;28;20053;-84
2022/12/22 13:29:07;;;;;;;17.30;9.47;;;9.20;99.90;;;;;;5032302;28;20108;-84
2022/12/22 13:32:06;;;;;;;18.35;8.85;;;9.20;99.90;;;;;;5058180;28;20053;-84
2022/12/22 13:34:39;;;;;;;15.63;8.97;;;9.20;99.90;;;;;;5027773;28;20052;-86
2022/12/22 13:37:27;;;;;;;20.97;9.40;;;9.30;99.90;;;;;;5064488;28;20516;-83
2022/12/22 13:40:07;;;;;;;20.40;9.63;;;9.30;99.90;;;;;;5058591;28;20045;-85
2022/12/22 13:43:03;;;;;;;16.87;9.10;;;9.30;99.90;;;;;;5055658;28;20049;-83
2022/12/22 13:45:40;;;;;;;19.37;9.40;;;9.30;99.90;;;;;;5053460;28;20060;-85
2022/12/22 13:48:29;;;;;;;18.27;9.10;;;9.40;99.90;;;;;;5040726;28;20481;-85
2022/12/22 13:50:57;;;;;;;16.47;8.50;;;9.30;99.90;;;;;;5054696;28;20102;-85
2022/12/22 13:53:34;;;;;;;17.00;8.80;;;9.40;99.90;;;;;;5058338;28;20067;-84
2022/12/22 13:56:04;;;;;;;21.50;9.13;;;9.40;99.90;;;;;;5055467;28;20044;-85
2022/12/22 13:58:37;;;;;;;18.07;9.80;;;9.40;99.90;;;;;;5055925;28;20504;-85
2022/12/22 14:01:15;;;;;;;23.33;8.70;;;9.40;99.90;;;;;;5059345;28;20579;-86
2022/12/22 14:04:06;;;;;;;15.97;9.20;;;9.40;99.90;;;;;;5056678;28;20132;-84
2022/12/22 14:06:37;;;;;;;15.03;8.17;;;9.40;99.90;;;;;;5059320;28;20040;-84
2022/12/22 14:09:22;;;;;;;16.90;8.55;;;9.30;99.90;;;;;;5064270;28;20049;-85
2022/12/22 14:12:05;;;;;;;12.83;7.87;;;9.30;99.90;;;;;;5068806;28;20045;-83
2022/12/22 14:14:43;;;;;;;15.10;7.93;;;9.30;99.90;;;;;;5061137;28;20092;-85
2022/12/22 14:17:32;;;;;;;13.30;8.80;;;9.30;99.90;;;;;;5059992;28;20083;-84
2022/12/22 14:20:00;;;;;;;12.83;7.17;;;9.30;99.90;;;;;;5060686;28;20048;-85
2022/12/22 14:22:27;;;;;;;12.83;7.23;;;9.30;99.90;;;;;;5056135;28;20056;-84
2022/12/22 14:25:01;;;;;;;11.40;7.37;;;9.20;99.90;;;;;;5067811;28;20079;-78
2022/12/22 14:27:50;;;;;;;16.53;7.47;;;9.20;99.90;;;;;;5065525;28;20063;-79
2022/12/22 14:30:25;;;;;;;15.00;7.60;;;9.20;99.90;;;;;;5068945;28;20051;-79
2022/12/22 14:32:53;;;;;;;14.03;7.97;;;9.10;99.90;;;;;;5072254;28;20107;-79
2022/12/22 14:35:19;;;;;;;13.00;7.20;;;9.10;99.90;;;;;;5060624;28;20442;-79
2022/12/22 14:37:51;;;;;;;14.17;7.50;;;9.10;99.90;;;;;;5061290;28;20053;-79
2022/12/22 14:40:33;;;;;;;11.47;7.23;;;9.10;99.90;;;;;;5065455;28;20037;-80
2022/12/22 14:43:02;;;;;;;16.23;7.43;;;9.10;99.90;;;;;;5068365;28;20460;-79
2022/12/22 14:45:28;;;;;;;13.83;7.63;;;9.00;99.90;;;;;;5066903;28;20041;-80
2022/12/22 14:47:55;;;;;;;14.97;7.17;;;9.00;99.90;;;;;;5060745;28;20043;-79
2022/12/22 14:50:26;;;;;;;14.27;6.87;;;9.00;99.90;;;;;;5060999;28;20041;-79
2022/12/22 14:52:53;;;;;;;14.50;7.27;;;9.00;99.90;;;;;;5064249;28;20052;-79
2022/12/22 14:55:36;;;;;;;15.47;6.90;;;8.90;99.90;;;;;;5056084;28;20537;-79
2022/12/22 14:58:14;;;;;;;19.77;7.13;;;8.90;99.90;;;;;;5062585;28;20132;-80
2022/12/22 15:00:43;;;;;;;13.67;7.07;;;8.80;99.90;;;;;;5052534;28;20044;-79
2022/12/22 15:03:28;;;;;;;13.87;7.60;;;8.80;99.90;;;;;;5064071;28;20452;-81
2022/12/22 15:05:54;;;;;;;16.60;7.73;;;8.80;99.90;;;;;;5065434;28;20053;-81
2022/12/22 15:08:41;;;;;;;16.50;7.23;;;8.60;99.90;;;;;;5070983;28;20140;-82
2022/12/22 15:11:17;;;;;;;14.40;7.57;;;8.60;99.90;;;;;;5060111;28;20069;-81
2022/12/22 15:13:44;;;;;;;12.70;7.50;;;8.60;99.90;;;;;;5055519;28;20287;-82
2022/12/22 15:16:17;;;;;;;15.47;7.83;;;8.50;99.90;;;;;;5055764;28;20099;-80
2022/12/22 15:18:43;;;;;;;14.00;7.27;;;8.50;99.90;;;;;;5063708;28;20041;-82
2022/12/22 15:21:12;;;;;;;17.77;7.77;;;8.50;99.90;;;;;;5062074;28;20610;-81
2022/12/22 15:23:38;;;;;;;15.03;7.53;;;8.50;99.90;;;;;;5056777;28;20036;-81
2022/12/22 15:26:04;;;;;;;16.67;8.07;;;8.50;99.90;;;;;;5068961;28;20040;-80
2022/12/22 15:28:30;;;;;;;14.30;7.37;;;8.50;99.90;;;;;;5068400;28;20079;-88
2022/12/22 15:30:58;;;;;;;14.80;7.47;;;8.50;99.90;;;;;;5064587;28;20048;-86
2022/12/22 15:33:24;;;;;;;14.60;6.70;;;8.50;99.90;;;;;;5071591;28;20516;-87
2022/12/22 15:35:50;;;;;;;13.50;6.87;;;8.50;99.90;;;;;;5067787;28;20083;-86
2022/12/22 15:38:18;;;;;;;13.70;7.17;;;8.40;99.90;;;;;;5067043;28;20041;-87
2022/12/22 15:40:44;;;;;;;14.43;6.93;;;8.40;99.90;;;;;;5063857;28;20088;-87
2022/12/22 15:43:13;;;;;;;13.87;6.67;;;8.40;99.90;;;;;;5070253;28;20043;-85
2022/12/22 15:45:39;;;;;;;14.33;7.03;;;8.40;99.90;;;;;;5070772;28;20061;-91
2022/12/22 15:48:10;;;;;;;13.53;6.43;;;8.40;99.90;;;;;;5074093;28;20090;-89
2022/12/22 15:50:40;;;;;;;13.07;6.77;;;8.40;99.90;;;;;;5068835;28;20052;-89
2022/12/22 15:53:13;;;;;;;15.83;7.07;;;8.40;99.90;;;;;;5060726;28;20052;-80
2022/12/22 15:55:42;;;;;;;13.33;7.37;;;8.40;99.90;;;;;;5059514;28;20063;-79
2022/12/22 15:58:11;;;;;;;14.53;7.53;;;8.30;99.90;;;;;;5056910;28;20037;-81
2022/12/22 16:00:37;;;;;;;15.80;6.90;;;8.30;99.90;;;;;;5059668;28;20071;-80
2022/12/22 16:03:04;;;;;;;14.57;6.97;;;8.30;99.90;;;;;;5068352;28;20495;-81
2022/12/22 16:05:31;;;;;;;17.33;8.17;;;8.30;99.90;;;;;;5068704;28;20108;-80
2022/12/22 16:07:57;;;;;;;13.10;7.63;;;8.30;99.90;;;;;;5067598;28;20563;-80
2022/12/22 16:10:29;;;;;;;16.93;7.63;;;8.30;99.90;;;;;;5068516;28;20087;-81
2022/12/22 16:13:01;;;;;;;15.53;7.47;;;8.30;99.90;;;;;;5063576;28;20049;-81
2022/12/22 16:15:28;;;;;;;;;;;8.30;99.90;;;;;;5065763;28;20402;-83
2022/12/22 16:17:54;;;;;;;12.37;8.57;;;8.20;99.90;;;;;;5071188;28;20414;-83
2022/12/22 16:20:20;;;;;;;19.30;9.50;;;8.20;99.90;;;;;;5074360;28;20032;-83
2022/12/22 16:22:47;;;;;;;17.00;9.83;;;8.20;99.90;;;;;;5073167;28;20102;-87
2022/12/22 16:25:22;;;;;;;13.70;9.10;;;8.20;99.90;;;;;;5068523;28;20112;-87
2022/12/22 16:27:49;;;;;;;17.47;9.83;;;8.20;99.90;;;;;;5071588;28;20041;-87
2022/12/22 16:30:21;;;;;;;19.53;9.97;;;8.20;99.90;;;;;;5069994;28;20136;-88
2022/12/22 16:32:47;;;;;;;19.33;12.20;;;8.20;99.90;;;;;;5075736;28;20080;-88
2022/12/22 16:35:14;;;;;;;20.03;12.00;;;8.20;99.90;;;;;;5078070;28;20052;-87
2022/12/22 16:37:40;;;;;;;25.37;13.23;;;8.20;99.90;;;;;;5077539;28;20056;-88
2022/12/22 16:40:07;;;;;;;22.57;13.97;;;8.20;99.90;;;;;;5069281;28;20068;-85
2022/12/22 16:42:33;;;;;;;20.93;13.77;;;8.20;99.90;;;;;;5076870;28;20157;-87